Alderson, Oklahoma
Current Conditions -  °F | °C
As of 5:53 PM on Thursday 27 Nov 2014 (Local Time) from KMLC Reporting Station
Clear Clear  
Wind Chill: 40°   Ceiling: Unl
Heat Index: 40°   Visibility: 10mi
Dew Point: 30°   Wind: 0mph
Humidity: 68%   Direction: NA
Pressure: 30.39"   Gusts: NA
Location:  34.9°N, 95.69°W
Report Text: KMLC 272353Z AUTO 00000KT 10SM CLR 04/M01 A3039 RMK AO2 SLP295 T00441011 10117 20044 56014
Loading
Personal Weather Stations






























Interactive Weather Map New forecast layout! Learn more

10-Day Weather Forecast

Advertisements
Track Severe Weather on mobile